Time;durP1;ratioP1;P1;durP2;ratioP2;P2;SDS_P1;SDS_P2;PMS_P1;PMS_P2;Temp;Humidity;BMP_temperature;BMP_pressure;BME280_temperature;BME280_humidity;BME280_pressure;Samples;Min_cycle;Max_cycle;Signal;HPM_P1;HPM_P2
2022/03/17 00:02:25;;;;;;;47.35;26.17;;;;;;;0.30;87.89;98682.02;1695790;84;20970;-84
2022/03/17 00:04:52;;;;;;;47.03;25.20;;;;;;;0.23;88.40;98688.41;1707227;84;20981;-83
2022/03/17 00:07:20;;;;;;;47.98;26.50;;;;;;;0.21;88.12;98687.91;1707531;84;20977;-84
2022/03/17 00:09:47;;;;;;;46.18;25.68;;;;;;;0.20;88.20;98693.54;1707430;84;21399;-83
2022/03/17 00:12:14;;;;;;;48.13;26.30;;;;;;;0.17;88.00;98696.51;1707404;84;20961;-83
2022/03/17 00:14:40;;;;;;;45.92;25.20;;;;;;;0.13;87.97;98702.08;1699737;84;21047;-83
2022/03/17 00:17:08;;;;;;;53.52;26.97;;;;;;;0.11;88.12;98706.35;1676208;85;21036;-82
2022/03/17 00:19:36;;;;;;;46.98;25.85;;;;;;;0.07;88.11;98702.80;1676180;86;21423;-83
2022/03/17 00:22:08;;;;;;;46.28;25.37;;;;;;;0.06;88.11;98707.56;1676180;86;21000;-82
2022/03/17 00:24:36;;;;;;;48.13;26.95;;;;;;;0.03;87.83;98709.22;1704315;84;20977;-82
2022/03/17 00:27:08;;;;;;;47.58;26.95;;;;;;;-0.01;87.71;98709.13;1707387;84;20977;-82
2022/03/17 00:29:37;;;;;;;54.60;27.77;;;;;;;-0.03;87.84;98701.68;1697638;84;21157;-82
2022/03/17 00:32:05;;;;;;;49.75;25.92;;;;;;;-0.05;88.17;98703.79;1637727;87;21000;-82
2022/03/17 00:34:34;;;;;;;54.35;27.73;;;;;;;-0.05;88.46;98710.30;1616196;88;21016;-82
2022/03/17 00:37:01;;;;;;;50.03;26.93;;;;;;;-0.05;88.55;98703.38;1633562;88;21049;-83
2022/03/17 00:39:27;;;;;;;47.95;27.07;;;;;;;-0.05;88.69;98707.30;1675989;86;20990;-82
2022/03/17 00:41:54;;;;;;;51.77;28.02;;;;;;;-0.05;88.55;98696.87;1676131;86;21035;-81
2022/03/17 00:44:21;;;;;;;54.73;28.90;;;;;;;-0.03;88.79;98701.68;1675725;86;21024;-82
2022/03/17 00:46:47;;;;;;;53.98;29.40;;;;;;;-0.05;88.99;98696.87;1676029;86;21033;-82
2022/03/17 00:49:14;;;;;;;52.17;29.50;;;;;;;-0.08;89.16;98695.92;1675978;86;21019;-82
2022/03/17 00:51:40;;;;;;;55.63;28.65;;;;;;;-0.09;89.14;98689.81;1675987;86;21053;-82
2022/03/17 00:54:07;;;;;;;50.25;28.87;;;;;;;-0.12;89.05;98691.47;1683716;84;21473;-84
2022/03/17 00:56:35;;;;;;;55.23;30.08;;;;;;;-0.18;89.06;98694.39;1671287;85;20996;-84
2022/03/17 00:59:02;;;;;;;58.55;31.30;;;;;;;-0.23;89.08;98698.60;1638667;88;21061;-84
2022/03/17 01:01:28;;;;;;;55.20;29.95;;;;;;;-0.24;88.73;98692.05;1648093;86;21068;-84
2022/03/17 01:03:55;;;;;;;57.67;30.85;;;;;;;-0.26;88.77;98697.20;1665006;86;21029;-84
2022/03/17 01:06:22;;;;;;;55.17;30.32;;;;;;;-0.33;88.77;98695.30;1665453;86;21005;-84
2022/03/17 01:08:48;;;;;;;52.62;28.10;;;;;;;-0.34;88.52;98700.06;1698879;84;21024;-84
2022/03/17 01:11:15;;;;;;;52.85;27.13;;;;;;;-0.40;88.98;98701.64;1698924;84;20984;-84
2022/03/17 01:13:41;;;;;;;60.78;30.43;;;;;;;-0.44;88.76;98696.33;1665344;86;21028;-84
2022/03/17 01:16:08;;;;;;;49.77;25.85;;;;;;;-0.43;89.02;98709.39;1699121;84;21073;-84
2022/03/17 01:18:35;;;;;;;48.52;26.90;;;;;;;-0.44;88.86;98706.73;1699405;84;21408;-84
2022/03/17 01:21:02;;;;;;;50.00;26.90;;;;;;;-0.45;88.70;98707.59;1699429;84;20986;-84
2022/03/17 01:23:29;;;;;;;49.60;26.37;;;;;;;-0.42;89.17;98711.14;1699046;84;21006;-84
2022/03/17 01:25:55;;;;;;;53.55;27.20;;;;;;;-0.41;89.21;98710.73;1699420;84;20990;-83
2022/03/17 01:28:22;;;;;;;47.65;27.05;;;;;;;-0.37;89.13;98711.70;1698652;84;21004;-84
2022/03/17 01:30:50;;;;;;;51.02;28.27;;;;;;;-0.34;89.49;98722.20;1698580;84;21025;-84
2022/03/17 01:33:17;;;;;;;61.88;30.32;;;;;;;-0.33;89.13;98718.31;1698881;84;21382;-83
2022/03/17 01:35:43;;;;;;;57.38;29.60;;;;;;;-0.26;89.10;98721.95;1698296;84;21092;-84
2022/03/17 01:38:10;;;;;;;62.95;30.80;;;;;;;-0.19;89.39;98726.91;1665321;86;21450;-84
2022/03/17 01:40:37;;;;;;;75.17;34.05;;;;;;;-0.12;89.18;98725.34;1699298;84;20997;-83
2022/03/17 01:43:03;;;;;;;73.85;35.28;;;;;;;-0.04;89.26;98729.03;1665407;86;21391;-83
2022/03/17 01:45:30;;;;;;;71.02;33.28;;;;;;;0.04;89.14;98727.47;1699069;84;21068;-83
2022/03/17 01:47:57;;;;;;;87.57;35.65;;;;;;;0.10;89.13;98722.84;1665593;86;21092;-83
2022/03/17 01:50:24;;;;;;;92.25;40.05;;;;;;;0.17;89.21;98727.79;1665658;86;21443;-83
2022/03/17 01:52:50;;;;;;;90.42;39.67;;;;;;;0.23;89.33;98728.82;1665780;86;21493;-83
2022/03/17 01:55:18;;;;;;;90.75;39.03;;;;;;;0.32;89.59;98730.75;1657909;87;21036;-84
2022/03/17 01:57:47;;;;;;;84.60;36.85;;;;;;;0.42;89.67;98733.17;1664120;86;21068;-83
2022/03/17 02:00:18;;;;;;;79.47;35.25;;;;;;;0.51;89.62;98733.80;1664249;86;21407;-84
2022/03/17 02:02:48;;;;;;;73.87;32.90;;;;;;;0.58;89.66;98738.28;1657723;87;21048;-83
2022/03/17 02:05:15;;;;;;;55.73;30.10;;;;;;;0.66;89.80;98734.55;1637023;88;21025;-84
2022/03/17 02:07:45;;;;;;;59.33;29.37;;;;;;;0.71;89.77;98746.41;1698551;84;21020;-83
2022/03/17 02:10:10;;;;;;;60.67;30.32;;;;;;;0.74;89.86;98749.95;1698744;84;21032;-83
2022/03/17 02:15:22;;;;;;;53.87;28.55;;;;;;;0.84;90.28;98746.25;1698825;84;21104;-82
2022/03/17 02:17:48;;;;;;;53.68;27.37;;;;;;;0.86;90.29;98754.56;1665061;86;21040;-83
2022/03/17 02:20:16;;;;;;;51.23;28.67;;;;;;;0.87;89.97;98752.41;1665759;86;21028;-82
2022/03/17 02:22:47;;;;;;;50.70;29.25;;;;;;;0.88;90.01;98748.08;1665583;86;21506;-82
2022/03/17 02:25:33;;;;;;;51.02;28.55;;;;;;;0.87;89.94;98755.02;1656989;87;21017;-83
2022/03/17 02:28:02;;;;;;;48.55;28.17;;;;;;;0.84;89.62;98756.27;1664223;86;21009;-83
2022/03/17 02:30:31;;;;;;;52.70;28.83;;;;;;;0.77;89.08;98765.69;1657739;87;21032;-83
2022/03/17 02:33:02;;;;;;;52.15;29.10;;;;;;;0.72;88.95;98767.31;1664116;86;20993;-83
2022/03/17 02:35:32;;;;;;;53.92;29.57;;;;;;;0.67;89.09;98767.64;1657782;87;21006;-83
2022/03/17 02:38:02;;;;;;;53.08;30.60;;;;;;;0.67;89.22;98768.05;1665764;86;21028;-83
2022/03/17 02:40:30;;;;;;;59.40;30.12;;;;;;;0.63;88.91;98778.41;1665615;86;21025;-83
2022/03/17 02:42:57;;;;;;;50.90;29.48;;;;;;;0.60;88.92;98777.45;1665652;86;21032;-83
2022/03/17 02:45:24;;;;;;;53.15;30.05;;;;;;;0.60;88.69;98777.05;1657985;87;21041;-83
2022/03/17 02:47:51;;;;;;;53.38;29.98;;;;;;;0.59;88.89;98775.30;1665328;86;21072;-83
2022/03/17 02:50:18;;;;;;;55.00;30.40;;;;;;;0.56;88.94;98780.42;1657639;86;20997;-84
2022/03/17 02:52:45;;;;;;;56.08;30.92;;;;;;;0.57;89.16;98778.27;1657936;87;21057;-83
2022/03/17 02:55:12;;;;;;;63.45;30.20;;;;;;;0.55;89.13;98787.80;1665447;85;21096;-83
2022/03/17 02:57:40;;;;;;;62.62;31.93;;;;;;;0.52;88.83;98789.02;1699247;84;20990;-83
2022/03/17 03:00:10;;;;;;;62.95;32.03;;;;;;;0.52;88.82;98789.91;1699381;84;21005;-83
2022/03/17 03:02:38;;;;;;;56.60;31.33;;;;;;;0.52;89.25;98796.84;1699507;84;21428;-83
2022/03/17 03:05:06;;;;;;;66.35;32.28;;;;;;;0.52;89.17;98804.26;1699540;84;20989;-83
2022/03/17 03:07:34;;;;;;;62.60;31.75;;;;;;;0.55;88.89;98794.73;1698968;84;21036;-83
2022/03/17 03:10:01;;;;;;;60.90;32.67;;;;;;;0.56;89.07;98797.38;1699016;84;20988;-83
2022/03/17 03:12:27;;;;;;;64.12;33.45;;;;;;;0.59;88.92;98801.79;1699062;84;20996;-83
2022/03/17 03:14:54;;;;;;;69.90;33.35;;;;;;;0.63;88.75;98803.63;1665056;86;21020;-83
2022/03/17 03:17:21;;;;;;;61.02;33.08;;;;;;;0.63;88.76;98801.88;1699076;84;21024;-83
2022/03/17 03:19:49;;;;;;;59.42;32.45;;;;;;;0.65;88.53;98809.75;1699407;84;20974;-82
2022/03/17 03:22:17;;;;;;;62.78;33.63;;;;;;;0.67;88.41;98811.09;1699337;84;21006;-83
2022/03/17 03:24:46;;;;;;;64.77;33.65;;;;;;;0.70;88.59;98807.27;1699479;84;21001;-83
2022/03/17 03:27:13;;;;;;;56.98;32.63;;;;;;;0.71;88.64;98807.72;1699493;84;20965;-82
2022/03/17 03:29:39;;;;;;;62.23;32.25;;;;;;;0.73;88.47;98814.73;1699378;84;20989;-83
2022/03/17 03:32:07;;;;;;;59.70;30.82;;;;;;;0.74;88.41;98815.19;1698969;84;21044;-83
2022/03/17 03:34:34;;;;;;;59.83;31.65;;;;;;;0.75;88.53;98820.86;1698912;84;21418;-83
2022/03/17 03:39:45;;;;;;;59.50;31.25;;;;;;;0.83;89.19;98817.56;1699179;84;21447;-83
2022/03/17 03:42:12;;;;;;;55.50;31.87;;;;;;;0.84;88.84;98821.92;1665304;86;20988;-83
2022/03/17 03:44:39;;;;;;;59.73;31.05;;;;;;;0.84;88.76;98825.84;1665679;86;21032;-83
2022/03/17 03:47:07;;;;;;;56.92;31.30;;;;;;;0.81;89.11;98825.75;1665702;86;21060;-83
2022/03/17 03:49:35;;;;;;;64.00;31.95;;;;;;;0.85;89.04;98829.80;1665512;86;21036;-82
2022/03/17 03:52:02;;;;;;;59.05;32.25;;;;;;;0.81;88.72;98827.06;1657991;87;21008;-82
2022/03/17 03:54:28;;;;;;;60.00;33.60;;;;;;;0.76;88.60;98827.86;1664300;86;20974;-82
2022/03/17 03:56:56;;;;;;;57.45;32.05;;;;;;;0.72;88.30;98831.66;1663445;86;20997;-82
2022/03/17 03:59:28;;;;;;;62.73;32.53;;;;;;;0.62;88.23;98831.43;1656503;87;21053;-82
2022/03/17 04:01:59;;;;;;;61.18;31.82;;;;;;;0.56;88.10;98836.51;1649792;86;21064;-82
2022/03/17 04:04:27;;;;;;;60.65;33.00;;;;;;;0.49;87.82;98838.49;1699339;84;20990;-82
2022/03/17 04:06:58;;;;;;;60.05;31.45;;;;;;;0.42;87.93;98839.20;1699627;84;20993;-81
2022/03/17 04:09:33;;;;;;;63.13;32.08;;;;;;;0.37;87.90;98847.78;1699454;84;21010;-81
2022/03/17 04:12:01;;;;;;;61.05;32.45;;;;;;;0.35;87.83;98851.20;1699094;84;21024;-81
2022/03/17 04:14:29;;;;;;;58.60;31.45;;;;;;;0.32;87.93;98850.70;1698963;84;21040;-81
2022/03/17 04:16:57;;;;;;;51.55;30.25;;;;;;;0.32;87.85;98861.53;1699060;84;21005;-84
2022/03/17 04:19:24;;;;;;;59.13;31.12;;;;;;;0.32;87.90;98865.45;1665472;86;20981;-83
2022/03/17 04:21:52;;;;;;;57.88;32.10;;;;;;;0.30;88.02;98869.34;1698896;84;21072;-83
2022/03/17 04:24:21;;;;;;;59.35;33.48;;;;;;;0.32;87.96;98872.86;1665174;86;21028;-84
2022/03/17 04:26:48;;;;;;;57.25;32.08;;;;;;;0.32;88.47;98876.77;1665663;86;21021;-83
2022/03/17 04:29:16;;;;;;;61.50;33.28;;;;;;;0.33;88.13;98877.67;1665584;86;21008;-84
2022/03/17 04:31:44;;;;;;;61.63;32.98;;;;;;;0.35;87.94;98876.86;1665617;86;21068;-83
2022/03/17 04:34:11;;;;;;;59.83;33.38;;;;;;;0.35;87.95;98877.27;1665376;86;21028;-84
2022/03/17 04:36:38;;;;;;;58.42;34.58;;;;;;;0.35;87.91;98880.77;1699621;84;21024;-83
2022/03/17 04:39:07;;;;;;;61.00;33.75;;;;;;;0.36;87.75;98883.84;1698860;84;21011;-83
2022/03/17 04:41:33;;;;;;;61.45;33.08;;;;;;;0.35;87.91;98885.09;1665276;86;21068;-82
2022/03/17 04:43:59;;;;;;;69.35;35.95;;;;;;;0.36;87.85;98891.66;1665669;86;21024;-81
2022/03/17 04:46:26;;;;;;;66.70;34.92;;;;;;;0.39;87.76;98896.08;1665407;86;21490;-81
2022/03/17 04:48:52;;;;;;;64.67;35.73;;;;;;;0.42;88.08;98897.88;1665727;86;21028;-81
2022/03/17 04:51:19;;;;;;;67.03;34.40;;;;;;;0.43;87.98;98894.42;1657992;87;21479;-81
2022/03/17 04:53:45;;;;;;;60.12;33.53;;;;;;;0.48;88.05;98908.05;1665431;86;21426;-81
2022/03/17 04:56:16;;;;;;;64.03;34.45;;;;;;;0.52;88.21;98912.51;1657713;87;21045;-81
2022/03/17 04:58:43;;;;;;;64.42;34.78;;;;;;;0.56;88.15;98913.88;1657769;87;21049;-81
2022/03/17 05:01:12;;;;;;;66.95;35.38;;;;;;;0.58;88.30;98920.89;1657546;87;21037;-82
2022/03/17 05:03:40;;;;;;;64.27;34.67;;;;;;;0.64;88.33;98926.70;1647210;86;21012;-81
2022/03/17 05:06:09;;;;;;;66.72;36.17;;;;;;;0.64;88.45;98928.00;1699459;84;21033;-81
2022/03/17 05:08:35;;;;;;;64.58;35.68;;;;;;;0.67;88.71;98928.50;1699413;84;21411;-81
2022/03/17 05:11:06;;;;;;;66.10;34.67;;;;;;;0.71;88.75;98923.83;1699195;84;21002;-81
2022/03/17 05:13:33;;;;;;;70.67;35.58;;;;;;;0.69;88.57;98926.80;1699037;84;21009;-82
2022/03/17 05:16:01;;;;;;;69.90;36.73;;;;;;;0.73;88.62;98929.95;1665371;86;21016;-82
2022/03/17 05:18:27;;;;;;;71.50;36.73;;;;;;;0.74;88.26;98930.41;1698999;84;21020;-83
2022/03/17 05:20:53;;;;;;;74.03;37.53;;;;;;;0.74;88.17;98931.30;1698868;84;21036;-83
2022/03/17 05:23:21;;;;;;;69.47;35.33;;;;;;;0.72;87.86;98934.30;1665392;86;21080;-82
2022/03/17 05:25:50;;;;;;;69.82;35.75;;;;;;;0.73;88.12;98943.89;1699223;84;21002;-82
2022/03/17 05:28:17;;;;;;;64.37;37.42;;;;;;;0.73;88.04;98939.08;1699271;84;20994;-82
2022/03/17 05:30:45;;;;;;;69.25;37.40;;;;;;;0.73;87.86;98943.00;1699400;84;20990;-81
2022/03/17 05:33:12;;;;;;;72.45;37.00;;;;;;;0.73;87.96;98945.20;1699352;84;21045;-83
2022/03/17 05:35:42;;;;;;;62.83;35.40;;;;;;;0.73;88.06;98942.59;1699273;84;21375;-84
2022/03/17 05:38:09;;;;;;;63.45;36.17;;;;;;;0.73;87.98;98943.00;1698922;84;21008;-84
2022/03/17 05:40:36;;;;;;;64.92;35.92;;;;;;;0.75;87.82;98943.50;1665297;86;21040;-84
2022/03/17 05:43:06;;;;;;;62.67;34.23;;;;;;;0.77;87.54;98943.13;1707554;83;20993;-84
2022/03/17 05:45:34;;;;;;;59.63;35.52;;;;;;;0.79;87.61;98944.04;1721687;83;20997;-84
2022/03/17 05:48:04;;;;;;;60.95;34.92;;;;;;;0.84;87.57;98951.11;1710338;83;21482;-84
2022/03/17 05:50:37;;;;;;;58.55;33.08;;;;;;;0.89;87.61;98956.91;1665217;86;21017;-84
2022/03/17 05:53:07;;;;;;;60.67;34.30;;;;;;;0.93;87.45;98955.25;1698558;84;21012;-82
2022/03/17 05:55:34;;;;;;;65.08;35.20;;;;;;;0.96;87.53;98956.64;1673935;84;21102;-82
2022/03/17 05:58:02;;;;;;;53.85;32.40;;;;;;;0.99;87.16;98948.00;1668121;86;21060;-82
2022/03/17 06:00:31;;;;;;;62.43;34.20;;;;;;;1.01;87.03;98947.61;1651034;86;21041;-82
2022/03/17 06:03:00;;;;;;;60.35;32.23;;;;;;;1.03;86.68;98949.41;1670791;86;21080;-82
2022/03/17 06:05:28;;;;;;;59.45;33.13;;;;;;;1.04;86.67;98954.22;1668297;86;21013;-82
2022/03/17 06:08:00;;;;;;;57.43;32.78;;;;;;;1.08;86.52;98960.39;1670875;86;21403;-83
2022/03/17 06:10:33;;;;;;;62.15;35.28;;;;;;;1.12;86.36;98960.93;1698850;84;21023;-83
2022/03/17 06:13:02;;;;;;;60.65;34.55;;;;;;;1.15;86.33;98963.19;1665554;86;21712;-82
2022/03/17 06:15:29;;;;;;;63.78;36.60;;;;;;;1.19;86.19;98965.44;1665052;86;21037;-82
2022/03/17 06:17:59;;;;;;;66.62;35.60;;;;;;;1.26;85.97;98978.22;1665284;86;21004;-82
2022/03/17 06:20:29;;;;;;;66.50;35.17;;;;;;;1.31;86.11;98971.37;1670590;86;21020;-82
2022/03/17 06:22:59;;;;;;;69.25;36.35;;;;;;;1.38;86.24;98982.86;1668448;86;21025;-82
2022/03/17 06:25:29;;;;;;;67.55;36.33;;;;;;;1.44;85.68;98990.42;1670837;85;20979;-82
2022/03/17 06:27:56;;;;;;;61.58;34.30;;;;;;;1.47;85.67;98987.41;1704914;84;21039;-82
2022/03/17 06:30:35;;;;;;;71.60;33.78;;;;;;;1.52;85.73;98994.92;1705358;83;21015;-82
2022/03/17 06:33:01;;;;;;;65.65;34.45;;;;;;;1.56;85.15;98987.62;1643310;87;21022;-82
2022/03/17 06:35:28;;;;;;;64.20;34.40;;;;;;;1.60;85.08;98995.98;1676748;85;21056;-82
2022/03/17 06:37:59;;;;;;;63.60;34.43;;;;;;;1.59;84.55;99004.68;1676411;86;21006;-82
2022/03/17 06:40:27;;;;;;;65.20;34.58;;;;;;;1.62;85.01;99004.73;1701359;83;21035;-82
2022/03/17 06:42:55;;;;;;;69.07;33.35;;;;;;;1.57;84.33;99003.34;1721234;83;21386;-83
2022/03/17 06:45:23;;;;;;;58.85;32.85;;;;;;;1.53;84.00;99006.72;1726687;83;21064;-82
2022/03/17 06:47:50;;;;;;;57.45;33.50;;;;;;;1.54;84.33;99007.17;1727086;83;21024;-82
2022/03/17 06:50:21;;;;;;;63.05;34.38;;;;;;;1.63;84.65;98997.79;1709094;83;21390;-82
2022/03/17 06:52:49;;;;;;;62.20;33.00;;;;;;;1.73;84.45;99006.73;1726419;83;20976;-81
2022/03/17 06:55:16;;;;;;;65.60;34.70;;;;;;;1.80;84.33;99008.21;1726955;83;21012;-81
2022/03/17 06:57:43;;;;;;;61.80;34.13;;;;;;;1.90;83.93;99008.38;1704315;83;21086;-83
2022/03/17 07:00:13;;;;;;;62.85;33.02;;;;;;;1.98;83.80;99010.75;1703988;83;21006;-83
2022/03/17 07:02:40;;;;;;;68.00;36.42;;;;;;;2.05;83.26;99016.58;1688453;83;21416;-82
2022/03/17 07:05:08;;;;;;;61.45;34.65;;;;;;;2.13;83.33;99011.52;1689560;85;21069;-82
2022/03/17 07:07:35;;;;;;;61.50;34.00;;;;;;;2.16;82.39;99010.25;1689698;84;21018;-82
2022/03/17 07:10:06;;;;;;;65.92;34.95;;;;;;;2.21;81.99;99015.15;1689693;85;21020;-82
2022/03/17 07:12:34;;;;;;;66.80;37.08;;;;;;;2.29;81.91;99009.20;1661909;86;21008;-82
2022/03/17 07:15:01;;;;;;;62.23;35.78;;;;;;;2.31;81.59;99013.62;1662076;86;21421;-83
2022/03/17 07:17:39;;;;;;;68.12;36.05;;;;;;;2.37;81.67;99020.72;1662123;86;21052;-83
2022/03/17 07:20:07;;;;;;;60.00;34.65;;;;;;;2.41;80.75;99019.91;1670256;84;21101;-82
2022/03/17 07:22:33;;;;;;;60.20;35.00;;;;;;;2.47;80.66;99015.22;1661717;86;21058;-82
2022/03/17 07:25:00;;;;;;;66.62;35.20;;;;;;;2.51;80.03;99020.98;1662093;86;20986;-82
2022/03/17 07:27:27;;;;;;;64.90;35.50;;;;;;;2.60;80.72;99018.95;1661806;86;21021;-82
2022/03/17 07:29:53;;;;;;;62.75;34.73;;;;;;;2.69;80.79;99012.59;1662147;86;21420;-83
2022/03/17 07:32:22;;;;;;;62.50;35.28;;;;;;;2.79;80.34;99004.91;1694531;84;20969;-82
2022/03/17 07:34:49;;;;;;;65.50;35.58;;;;;;;2.71;79.28;99020.48;1651454;86;21041;-82
2022/03/17 07:37:17;;;;;;;60.28;36.17;;;;;;;2.76;79.75;99026.69;1636783;87;21068;-83
2022/03/17 07:39:44;;;;;;;56.53;34.48;;;;;;;2.81;80.19;99026.34;1654499;86;21013;-83
2022/03/17 07:42:11;;;;;;;61.02;35.30;;;;;;;2.94;79.91;99017.41;1654241;86;21148;-84
2022/03/17 07:44:51;;;;;;;58.80;32.70;;;;;;;3.03;79.75;99020.16;1592242;86;21430;-80
2022/03/17 07:47:46;;;;;;;60.45;33.50;;;;;;;3.13;79.22;99018.19;1639576;87;21018;-86
2022/03/17 07:50:13;;;;;;;55.95;33.48;;;;;;;3.24;78.72;99022.27;1638846;88;21070;-86
2022/03/17 07:52:41;;;;;;;57.83;33.48;;;;;;;3.35;79.00;99026.80;1626424;88;21540;-88
2022/03/17 07:55:09;;;;;;;61.40;33.63;;;;;;;3.43;78.11;99023.47;1633085;88;21029;-87
2022/03/17 07:57:37;;;;;;;63.58;34.00;;;;;;;3.51;77.02;99035.80;1667120;84;21017;-83
2022/03/17 08:00:07;;;;;;;64.42;34.35;;;;;;;3.59;78.04;99031.98;1699239;84;21011;-81
2022/03/17 08:02:37;;;;;;;58.38;33.05;;;;;;;3.71;77.30;99033.50;1698331;84;20987;-81
2022/03/17 08:05:05;;;;;;;58.02;31.87;;;;;;;3.80;77.57;99028.81;1698435;84;21078;-81
2022/03/17 08:07:32;;;;;;;57.30;31.20;;;;;;;3.90;76.00;99024.59;1699277;84;21013;-81
2022/03/17 08:09:59;;;;;;;54.67;28.98;;;;;;;3.95;76.08;99033.41;1699208;84;21026;-81
2022/03/17 08:12:30;;;;;;;50.95;28.83;;;;;;;3.96;74.41;99032.54;1699133;84;21001;-81
2022/03/17 08:14:54;;;;;;;46.80;26.12;;;;;;;3.90;74.05;99026.77;1698511;84;20998;-81
2022/03/17 08:17:21;;;;;;;48.15;26.85;;;;;;;3.89;72.53;99029.36;1699148;84;21055;-81
2022/03/17 08:19:47;;;;;;;42.50;25.60;;;;;;;3.91;74.94;99030.28;1698950;84;21040;-81
2022/03/17 08:22:14;;;;;;;45.12;26.20;;;;;;;3.91;73.85;99030.28;1698909;84;21433;-81
2022/03/17 08:24:41;;;;;;;46.65;24.50;;;;;;;3.96;75.05;99036.02;1698909;84;21028;-81
2022/03/17 08:27:07;;;;;;;42.53;24.98;;;;;;;4.00;74.48;99027.79;1699171;84;20992;-81
2022/03/17 08:29:34;;;;;;;44.30;24.57;;;;;;;4.04;74.45;99031.33;1699216;84;20990;-81
2022/03/17 08:32:01;;;;;;;40.52;23.00;;;;;;;4.03;72.33;99025.19;1699580;84;21009;-81
2022/03/17 08:34:28;;;;;;;42.45;23.75;;;;;;;4.06;73.05;99023.04;1699527;84;20966;-73
2022/03/17 08:36:56;;;;;;;43.78;25.23;;;;;;;4.08;72.27;99023.50;1699305;84;21017;-74
2022/03/17 08:39:24;;;;;;;39.27;21.68;;;;;;;4.10;73.01;99023.53;1699480;84;21376;-73
2022/03/17 08:41:51;;;;;;;36.80;21.87;;;;;;;4.14;72.29;99017.89;1699074;84;21461;-74
2022/03/17 08:44:20;;;;;;;34.15;19.60;;;;;;;4.16;71.55;99018.36;1664995;86;21132;-74
2022/03/17 08:49:32;;;;;;;32.83;19.32;;;;;;;4.23;71.00;99011.45;1665493;86;21546;-73
2022/03/17 08:52:01;;;;;;;31.95;17.45;;;;;;;4.26;71.27;99031.18;1665545;86;20977;-73
2022/03/17 08:54:33;;;;;;;37.08;20.20;;;;;;;4.33;71.22;99033.45;1665973;86;21000;-73
2022/03/17 08:56:59;;;;;;;44.27;25.27;;;;;;;4.40;68.21;99032.66;1657993;86;21522;-74
2022/03/17 08:59:33;;;;;;;50.23;27.02;;;;;;;4.52;69.41;99038.94;1664889;86;20985;-73
2022/03/17 09:02:06;;;;;;;24.55;14.73;;;;;;;4.61;68.90;99033.34;1657669;86;21045;-73
2022/03/17 09:04:34;;;;;;;24.10;13.15;;;;;;;4.69;67.58;99037.81;1664091;86;21021;-73
2022/03/17 09:07:02;;;;;;;22.85;13.13;;;;;;;4.70;61.44;99033.01;1664170;86;21028;-73
2022/03/17 09:09:33;;;;;;;22.95;13.75;;;;;;;4.73;62.69;99029.97;1664129;86;21017;-73
2022/03/17 09:12:05;;;;;;;25.12;12.60;;;;;;;4.79;63.77;99040.98;1650685;85;21119;-73
2022/03/17 09:14:36;;;;;;;23.60;12.65;;;;;;;4.85;59.87;99043.67;1699446;84;21021;-73
2022/03/17 09:17:04;;;;;;;23.60;12.78;;;;;;;4.84;56.85;99041.92;1699478;84;20994;-73
2022/03/17 09:19:32;;;;;;;22.60;12.70;;;;;;;4.83;57.26;99049.77;1698941;84;21794;-73
2022/03/17 09:21:59;;;;;;;23.62;13.22;;;;;;;4.88;59.04;99049.39;1665339;86;21047;-73
2022/03/17 09:24:30;;;;;;;23.98;13.05;;;;;;;5.00;60.94;99052.58;1698913;84;21124;-73
2022/03/17 09:26:54;;;;;;;23.47;13.13;;;;;;;5.09;60.68;99047.84;1665016;85;21080;-73
2022/03/17 09:29:20;;;;;;;24.27;13.18;;;;;;;5.17;59.29;99055.79;1698938;84;21076;-73
2022/03/17 09:31:47;;;;;;;25.80;13.00;;;;;;;5.29;58.77;99052.84;1699386;84;21443;-73
2022/03/17 09:34:13;;;;;;;22.15;13.18;;;;;;;5.43;56.72;99053.40;1699253;84;21035;-73
2022/03/17 09:36:40;;;;;;;24.07;13.35;;;;;;;5.54;57.98;99058.33;1699534;84;21037;-73
2022/03/17 09:41:52;;;;;;;25.32;13.13;;;;;;;5.66;57.30;99060.59;1699061;84;21052;-73
2022/03/17 09:44:19;;;;;;;22.80;13.58;;;;;;;5.72;55.83;99066.35;1698859;84;21485;-73
2022/03/17 09:46:47;;;;;;;24.75;15.23;;;;;;;5.72;54.60;99068.53;1665150;86;21000;-73
2022/03/17 09:49:15;;;;;;;26.48;13.93;;;;;;;5.76;55.58;99069.42;1698899;84;21028;-73
2022/03/17 09:51:45;;;;;;;22.93;13.22;;;;;;;5.80;56.62;99070.80;1665733;86;21044;-73
2022/03/17 09:54:12;;;;;;;29.82;14.80;;;;;;;5.88;55.48;99072.16;1699104;84;20949;-73
2022/03/17 09:56:39;;;;;;;30.05;14.45;;;;;;;5.92;56.76;99062.10;1701211;84;21041;-73
2022/03/17 09:59:06;;;;;;;21.40;12.37;;;;;;;5.99;56.53;99066.97;1673923;86;21026;-73
2022/03/17 10:01:33;;;;;;;23.60;12.30;;;;;;;6.10;57.12;99067.05;1673745;86;21007;-73
2022/03/17 10:04:03;;;;;;;21.52;12.07;;;;;;;6.24;56.74;99071.52;1649315;86;21429;-73
2022/03/17 10:06:30;;;;;;;20.90;11.63;;;;;;;6.37;55.01;99072.46;1673729;86;21001;-73
2022/03/17 10:08:58;;;;;;;20.65;11.48;;;;;;;6.48;54.91;99074.73;1673445;86;21478;-73
2022/03/17 10:11:31;;;;;;;21.80;12.28;;;;;;;6.61;53.62;99075.66;1673679;86;21024;-73
2022/03/17 10:14:00;;;;;;;20.17;13.13;;;;;;;6.63;50.25;99069.95;1673640;86;20988;-80
2022/03/17 10:16:28;;;;;;;23.02;12.50;;;;;;;6.70;53.91;99063.84;1673658;86;21032;-80
2022/03/17 10:19:12;;;;;;;25.62;12.43;;;;;;;6.83;53.63;99059.91;1673744;86;20991;-80
2022/03/17 10:21:41;;;;;;;22.07;11.10;;;;;;;6.93;52.64;99062.15;1674345;86;21469;-80
2022/03/17 10:24:08;;;;;;;20.10;12.53;;;;;;;6.92;50.82;99063.00;1673855;86;21081;-80
2022/03/17 10:26:49;;;;;;;21.70;11.68;;;;;;;6.91;49.21;99066.09;1673938;86;21057;-81
2022/03/17 10:29:27;;;;;;;22.07;12.78;;;;;;;6.87;48.18;99061.68;1673751;86;21030;-80
2022/03/17 10:32:14;;;;;;;20.70;12.25;;;;;;;6.79;49.03;99056.39;1673870;86;21464;-80
2022/03/17 10:34:51;;;;;;;17.20;10.63;;;;;;;6.85;50.62;99063.45;1672138;86;21056;-80
2022/03/17 10:37:22;;;;;;;19.75;11.80;;;;;;;6.94;48.57;99059.48;1673283;86;21067;-81
2022/03/17 10:39:54;;;;;;;22.70;12.58;;;;;;;7.11;51.45;99056.89;1673697;86;21473;-81
2022/03/17 10:42:27;;;;;;;19.52;11.90;;;;;;;7.27;49.10;99056.94;1673679;86;21014;-80
2022/03/17 10:44:58;;;;;;;20.20;12.95;;;;;;;7.40;50.57;99056.04;1673727;86;20999;-73
2022/03/17 10:47:40;;;;;;;25.15;13.75;;;;;;;7.68;48.68;99047.70;1673924;86;21019;-73
2022/03/17 10:50:16;;;;;;;25.50;13.15;;;;;;;8.40;47.60;99044.45;1673774;86;21404;-73
2022/03/17 10:52:52;;;;;;;20.45;11.78;;;;;;;9.41;45.85;99034.64;1673648;86;21041;-73
2022/03/17 10:55:25;;;;;;;19.62;11.18;;;;;;;10.56;44.41;99035.27;1673426;86;21000;-73
2022/03/17 10:57:58;;;;;;;19.20;11.12;;;;;;;11.70;43.47;99036.22;1668956;86;21044;-73
2022/03/17 11:00:27;;;;;;;18.30;11.78;;;;;;;12.59;41.26;99021.30;1665519;86;21076;-73
2022/03/17 11:02:59;;;;;;;17.90;11.95;;;;;;;13.46;40.34;99016.18;1665630;86;21382;-74
2022/03/17 11:05:28;;;;;;;16.87;10.98;;;;;;;14.04;36.49;99025.86;1665538;86;20989;-74
2022/03/17 11:07:58;;;;;;;20.80;11.95;;;;;;;14.55;35.12;99016.42;1665627;86;21012;-73
2022/03/17 11:10:25;;;;;;;15.90;11.53;;;;;;;15.03;32.47;99009.66;1665409;86;21009;-73
2022/03/17 11:12:52;;;;;;;16.40;11.73;;;;;;;15.44;35.00;99010.58;1665292;86;21041;-74
2022/03/17 11:15:30;;;;;;;17.67;12.78;;;;;;;16.06;30.02;99005.40;1699053;84;21020;-74
2022/03/17 11:18:12;;;;;;;15.98;11.93;;;;;;;16.58;33.35;99008.42;1665330;86;21024;-74
2022/03/17 11:20:39;;;;;;;19.05;12.95;;;;;;;17.52;33.86;99002.98;1698971;84;21075;-74
2022/03/17 11:23:11;;;;;;;17.25;12.85;;;;;;;17.95;32.67;99001.11;1698963;84;21063;-74
2022/03/17 11:25:38;;;;;;;16.32;11.22;;;;;;;18.62;31.80;98998.64;1698740;84;21088;-74
2022/03/17 11:28:05;;;;;;;15.70;11.88;;;;;;;17.76;24.09;98990.79;1679335;84;21025;-71
2022/03/17 11:30:44;;;;;;;17.48;13.35;;;;;;;18.00;27.97;99001.39;1699671;84;21049;-74
2022/03/17 11:33:44;;;;;;;17.32;13.32;;;;;;;18.28;27.08;99005.56;1699451;84;21005;-74
2022/03/17 11:36:19;;;;;;;16.10;12.25;;;;;;;18.26;25.88;99004.28;1699660;84;21272;-74
2022/03/17 11:38:56;;;;;;;16.90;13.05;;;;;;;17.52;25.94;99002.98;1698943;83;20997;-74
2022/03/17 11:41:24;;;;;;;15.98;13.48;;;;;;;18.20;28.42;98999.20;1699052;84;21004;-73
2022/03/17 11:43:56;;;;;;;19.67;12.75;;;;;;;18.68;27.16;98995.67;1665377;86;21016;-74